Terminal Aerodrome Forecast
Issued by NWS

Home | Current Version | Previous Version | Graphics & Text | Print | Product List | Glossary On
Versions: 1 2 3 4 5 6 7 8 9 10 11 12 13 14 15
000
FTUS43 KGRB 190500
TAFMTW
TAF
KMTW 190520Z 1906/2006 07009KT P6SM BKN200
     FM190800 11009KT P6SM BKN070 BKN150 WS013/12035KT
     FM191400 11012G19KT P6SM BKN070 OVC150
      TEMPO 1920/1924 -SHRA OVC060
     FM200000 07009KT 6SM -SHRA OVC035=

USA.gov is the U.S. government's official web portal to all federal, state and local government web resources and services.